N314PI KMSN-KGRB
Flight info
| Callsign | N314PI |
|---|---|
| Flight time | 0h 25m |
| Altitude | 17000 |
| Route | HOMNY |
| Aircraft | C750/M-SBDE3FGHRWXY/S |
Departure
| Time | 2026-05-04 18:32 |
|---|---|
| Airport | Dane County Regional Truax Field (KMSN) |
Arrival
| Time | 2026-05-04 18:58 |
|---|---|
| Airport | Austin Straubel International Airport (KGRB) |
| Time | Latitude | Longitude | Altitude | Speed | Heading |
|---|---|---|---|---|---|
| 2026-05-04 18:15 | 43.14061 | -89.32807 | 866 ft | 0 kts | 181° |
| 2026-05-04 18:28 | 43.14059 | -89.32808 | 867 ft | 1 kts | 189° |
| 2026-05-04 18:28 | 43.14049 | -89.32832 | 859 ft | 6 kts | 257° |
| 2026-05-04 18:29 | 43.14039 | -89.32941 | 864 ft | 16 kts | 289° |
| 2026-05-04 18:29 | 43.14124 | -89.33079 | 864 ft | 21 kts | 314° |
| 2026-05-04 18:29 | 43.14232 | -89.33218 | 860 ft | 22 kts | 320° |
| 2026-05-04 18:29 | 43.14362 | -89.33229 | 856 ft | 19 kts | 30° |
| 2026-05-04 18:30 | 43.14563 | -89.33072 | 864 ft | 16 kts | 30° |
| 2026-05-04 18:30 | 43.14654 | -89.33004 | 865 ft | 14 kts | 28° |
| 2026-05-04 18:30 | 43.14746 | -89.32936 | 862 ft | 16 kts | 29° |
| 2026-05-04 18:31 | 43.14841 | -89.32862 | 857 ft | 15 kts | 30° |
| 2026-05-04 18:31 | 43.14930 | -89.32792 | 858 ft | 15 kts | 30° |
| 2026-05-04 18:31 | 43.15020 | -89.32800 | 855 ft | 13 kts | 313° |
| 2026-05-04 18:31 | 43.15025 | -89.32890 | 859 ft | 9 kts | 225° |
| 2026-05-04 18:32 | 43.14881 | -89.33003 | 852 ft | 73 kts | 207° |
| 2026-05-04 18:32 | 43.14165 | -89.33554 | 1050 ft | 136 kts | 212° |
| 2026-05-04 18:32 | 43.13322 | -89.34192 | 1729 ft | 146 kts | 212° |
| 2026-05-04 18:32 | 43.12386 | -89.34844 | 2478 ft | 155 kts | 212° |
| 2026-05-04 18:33 | 43.11661 | -89.35219 | 2791 ft | 178 kts | 200° |
| 2026-05-04 18:33 | 43.09852 | -89.34586 | 3497 ft | 232 kts | 157° |
| 2026-05-04 18:33 | 43.08436 | -89.33235 | 4129 ft | 264 kts | 150° |
| 2026-05-04 18:33 | 43.07234 | -89.31187 | 4643 ft | 291 kts | 121° |
| 2026-05-04 18:34 | 43.06755 | -89.28408 | 4974 ft | 318 kts | 96° |
| 2026-05-04 18:34 | 43.07118 | -89.25456 | 4978 ft | 312 kts | 71° |
| 2026-05-04 18:34 | 43.07698 | -89.23699 | 5134 ft | 298 kts | 61° |
| 2026-05-04 18:34 | 43.08732 | -89.21257 | 5156 ft | 299 kts | 56° |
| 2026-05-04 18:35 | 43.10111 | -89.19093 | 5166 ft | 310 kts | 36° |
| 2026-05-04 18:35 | 43.11822 | -89.17354 | 6382 ft | 300 kts | 31° |
| 2026-05-04 18:35 | 43.13439 | -89.15522 | 7554 ft | 306 kts | 38° |
| 2026-05-04 18:35 | 43.14960 | -89.13458 | 8741 ft | 310 kts | 41° |
| 2026-05-04 18:36 | 43.16501 | -89.11389 | 9867 ft | 312 kts | 39° |
| 2026-05-04 18:36 | 43.18139 | -89.09342 | 10522 ft | 329 kts | 37° |
| 2026-05-04 18:36 | 43.19883 | -89.07169 | 11075 ft | 343 kts | 38° |
| 2026-05-04 18:36 | 43.21620 | -89.04923 | 11872 ft | 344 kts | 39° |
| 2026-05-04 18:37 | 43.23372 | -89.02655 | 12618 ft | 348 kts | 38° |
| 2026-05-04 18:37 | 43.25158 | -89.00379 | 13338 ft | 351 kts | 37° |
| 2026-05-04 18:37 | 43.26933 | -88.98116 | 13969 ft | 355 kts | 37° |
| 2026-05-04 18:37 | 43.28773 | -88.95752 | 14603 ft | 360 kts | 38° |
| 2026-05-04 18:38 | 43.30609 | -88.93388 | 15389 ft | 364 kts | 38° |
| 2026-05-04 18:38 | 43.32475 | -88.90991 | 16148 ft | 371 kts | 38° |
| 2026-05-04 18:38 | 43.34351 | -88.88582 | 16877 ft | 378 kts | 38° |
| 2026-05-04 18:38 | 43.36306 | -88.86070 | 17006 ft | 389 kts | 38° |
| 2026-05-04 18:39 | 43.38276 | -88.83523 | 17005 ft | 388 kts | 38° |
| 2026-05-04 18:39 | 43.40238 | -88.80984 | 17004 ft | 386 kts | 38° |
| 2026-05-04 18:39 | 43.42194 | -88.78459 | 17005 ft | 385 kts | 38° |
| 2026-05-04 18:39 | 43.44144 | -88.75945 | 17013 ft | 384 kts | 38° |
| 2026-05-04 18:40 | 43.46084 | -88.73435 | 17010 ft | 382 kts | 38° |
| 2026-05-04 18:40 | 43.48017 | -88.70929 | 17008 ft | 381 kts | 38° |
| 2026-05-04 18:40 | 43.49946 | -88.68428 | 17009 ft | 380 kts | 38° |
| 2026-05-04 18:40 | 43.51979 | -88.66152 | 16967 ft | 372 kts | 25° |
| 2026-05-04 18:41 | 43.54294 | -88.64709 | 17006 ft | 362 kts | 14° |
| 2026-05-04 18:41 | 43.56642 | -88.63459 | 17010 ft | 362 kts | 14° |
| 2026-05-04 18:41 | 43.58989 | -88.62203 | 17002 ft | 363 kts | 14° |
| 2026-05-04 18:41 | 43.61353 | -88.60918 | 16961 ft | 366 kts | 15° |
| 2026-05-04 18:42 | 43.63691 | -88.59643 | 16953 ft | 367 kts | 15° |
| 2026-05-04 18:42 | 43.66055 | -88.58359 | 16942 ft | 364 kts | 15° |
| 2026-05-04 18:42 | 43.68409 | -88.57083 | 16951 ft | 361 kts | 15° |
| 2026-05-04 18:42 | 43.70737 | -88.55820 | 16946 ft | 359 kts | 14° |
| 2026-05-04 18:43 | 43.73059 | -88.54558 | 16954 ft | 358 kts | 15° |
| 2026-05-04 18:43 | 43.75364 | -88.53301 | 17039 ft | 356 kts | 14° |
| 2026-05-04 18:43 | 43.77680 | -88.52043 | 17040 ft | 359 kts | 14° |
| 2026-05-04 18:43 | 43.80016 | -88.50773 | 17010 ft | 363 kts | 15° |
| 2026-05-04 18:44 | 43.82410 | -88.49470 | 16611 ft | 372 kts | 15° |
| 2026-05-04 18:44 | 43.83994 | -88.48600 | 16267 ft | 367 kts | 15° |
| 2026-05-04 18:44 | 43.87115 | -88.46880 | 15627 ft | 354 kts | 14° |
| 2026-05-04 18:44 | 43.89377 | -88.45647 | 15147 ft | 346 kts | 14° |
| 2026-05-04 18:45 | 43.91601 | -88.44436 | 14696 ft | 341 kts | 14° |
| 2026-05-04 18:45 | 43.93799 | -88.43233 | 14251 ft | 337 kts | 14° |
| 2026-05-04 18:45 | 43.95973 | -88.42039 | 13809 ft | 334 kts | 14° |
| 2026-05-04 18:45 | 43.98098 | -88.40873 | 13375 ft | 332 kts | 14° |
| 2026-05-04 18:46 | 44.00238 | -88.39699 | 12914 ft | 329 kts | 14° |
| 2026-05-04 18:46 | 44.02357 | -88.38534 | 12491 ft | 326 kts | 14° |
| 2026-05-04 18:46 | 44.04464 | -88.37375 | 12043 ft | 324 kts | 14° |
| 2026-05-04 18:46 | 44.06549 | -88.36216 | 11629 ft | 322 kts | 14° |
| 2026-05-04 18:47 | 44.08626 | -88.35076 | 11206 ft | 320 kts | 13° |
| 2026-05-04 18:47 | 44.10704 | -88.33945 | 10783 ft | 322 kts | 14° |
| 2026-05-04 18:47 | 44.12794 | -88.32793 | 10359 ft | 324 kts | 14° |
| 2026-05-04 18:47 | 44.14875 | -88.31636 | 9934 ft | 318 kts | 14° |
| 2026-05-04 18:48 | 44.16836 | -88.30228 | 9449 ft | 322 kts | 32° |
| 2026-05-04 18:48 | 44.18403 | -88.28023 | 9084 ft | 317 kts | 44° |
| 2026-05-04 18:48 | 44.19816 | -88.25697 | 8726 ft | 312 kts | 46° |
| 2026-05-04 18:48 | 44.21197 | -88.23393 | 8365 ft | 308 kts | 46° |
| 2026-05-04 18:49 | 44.22566 | -88.21105 | 8018 ft | 306 kts | 46° |
| 2026-05-04 18:49 | 44.23889 | -88.18877 | 8002 ft | 301 kts | 46° |
| 2026-05-04 18:49 | 44.25243 | -88.16601 | 8010 ft | 308 kts | 46° |
| 2026-05-04 18:49 | 44.26622 | -88.14292 | 8016 ft | 311 kts | 46° |
| 2026-05-04 18:50 | 44.28015 | -88.11965 | 8004 ft | 314 kts | 46° |
| 2026-05-04 18:50 | 44.29419 | -88.09625 | 8002 ft | 310 kts | 46° |
| 2026-05-04 18:50 | 44.30764 | -88.07373 | 7988 ft | 295 kts | 46° |
| 2026-05-04 18:50 | 44.32043 | -88.05216 | 7988 ft | 281 kts | 46° |
| 2026-05-04 18:51 | 44.33264 | -88.03138 | 7980 ft | 270 kts | 46° |
| 2026-05-04 18:51 | 44.34437 | -88.01138 | 7982 ft | 271 kts | 46° |
| 2026-05-04 18:51 | 44.35656 | -87.99066 | 7985 ft | 273 kts | 45° |
| 2026-05-04 18:51 | 44.37108 | -87.97552 | 7839 ft | 260 kts | 13° |
| 2026-05-04 18:52 | 44.38826 | -87.97044 | 7416 ft | 247 kts | 357° |
| 2026-05-04 18:52 | 44.40515 | -87.96777 | 7127 ft | 242 kts | 356° |
| 2026-05-04 18:52 | 44.42153 | -87.96518 | 6722 ft | 232 kts | 356° |
| 2026-05-04 18:52 | 44.43757 | -87.96268 | 6329 ft | 228 kts | 356° |
| 2026-05-04 18:53 | 44.45317 | -87.96035 | 5897 ft | 222 kts | 356° |
| 2026-05-04 18:53 | 44.46841 | -87.95817 | 5454 ft | 219 kts | 355° |
| 2026-05-04 18:53 | 44.48346 | -87.95594 | 5010 ft | 216 kts | 356° |
| 2026-05-04 18:53 | 44.49827 | -87.95401 | 4571 ft | 208 kts | 352° |
| 2026-05-04 18:54 | 44.51074 | -87.96037 | 3995 ft | 183 kts | 309° |
| 2026-05-04 18:54 | 44.51887 | -87.97340 | 3586 ft | 175 kts | 300° |
| 2026-05-04 18:54 | 44.52665 | -87.98643 | 3192 ft | 172 kts | 300° |
| 2026-05-04 18:54 | 44.53005 | -88.00114 | 2704 ft | 159 kts | 269° |
| 2026-05-04 18:55 | 44.52922 | -88.01636 | 2406 ft | 152 kts | 261° |
| 2026-05-04 18:55 | 44.52194 | -88.04199 | 2024 ft | 130 kts | 242° |
| 2026-05-04 18:55 | 44.51757 | -88.05204 | 1742 ft | 113 kts | 244° |
| 2026-05-04 18:56 | 44.51413 | -88.06146 | 1551 ft | 106 kts | 245° |
| 2026-05-04 18:56 | 44.51042 | -88.07030 | 1392 ft | 105 kts | 244° |
| 2026-05-04 18:56 | 44.50680 | -88.07901 | 1262 ft | 102 kts | 244° |
| 2026-05-04 18:56 | 44.50331 | -88.08779 | 1115 ft | 106 kts | 244° |
| 2026-05-04 18:57 | 44.49964 | -88.09660 | 946 ft | 105 kts | 241° |
| 2026-05-04 18:57 | 44.49587 | -88.10579 | 798 ft | 113 kts | 240° |
| 2026-05-04 18:57 | 44.49187 | -88.11529 | 688 ft | 111 kts | 240° |
| 2026-05-04 18:57 | 44.48862 | -88.12313 | 682 ft | 65 kts | 240° |
| 2026-05-04 18:58 | 44.48694 | -88.12717 | 684 ft | 37 kts | 239° |
| 2026-05-04 18:58 | 44.48586 | -88.12978 | 690 ft | 19 kts | 240° |
| 2026-05-04 18:58 | 44.48540 | -88.13153 | 692 ft | 19 kts | 279° |
| 2026-05-04 18:58 | 44.48599 | -88.13214 | 694 ft | 9 kts | 360° |
| 2026-05-04 18:59 | 44.48703 | -88.13216 | 690 ft | 21 kts | 360° |
| 2026-05-04 18:59 | 44.48871 | -88.13215 | 689 ft | 22 kts | 360° |
| 2026-05-04 18:59 | 44.49018 | -88.13214 | 688 ft | 21 kts | 0° |
| 2026-05-04 18:59 | 44.49159 | -88.13213 | 687 ft | 20 kts | 0° |
| 2026-05-04 19:00 | 44.49290 | -88.13201 | 688 ft | 16 kts | 6° |
| 2026-05-04 19:00 | 44.49386 | -88.13190 | 688 ft | 13 kts | 32° |
| 2026-05-04 19:00 | 44.49427 | -88.13102 | 688 ft | 6 kts | 28° |
| 2026-05-04 19:00 | 44.49435 | -88.13105 | 689 ft | 0 kts | 317° |